Thunder radar more information blitzortung!


Löydät sääaseman tiedot myös:

European Weather Network

Finland Weather Exchange

Weather Underground

AWEKAS



Weather Underground säähistoriasivu

Päivittäin yhteenveto Tammikuu 8, 2017 Yksiköt:  Englantilaiset    Metriset   Molemmat
« Edellinen Päivä
Seuraava Päivä »
Päivittäin Viikoittain Kuukausittain Vuosittain Mukautettu
  Korkea: Matala: Keskiarvo:
Lämpötila: TemperatureC °F -6.7 °F -2.6 °F
Kastepiste: DewpointC °F -7.6 °F -3.4 °F
Kosteus: Humidity % 92 % 94 %
Tuulen nopeus: WindSpeedKMH mph 0.0 mph 4.3 mph
Tuulenpuuska: WindSpeedGustKMH mph - -
Tuuli:- - SSW
Ilmanpaine: PressurehPa in 1009.7 in -
Sade: 0.0 in    
Historical Graphs
 
 
Taulukkotiedot Tammikuu 8, 2017
Aika Lämpötila Kastepiste Ilmanpaine Tuuli Tuulen nopeus Tuulenpuuska Kosteus Sademäärä (tunneittain)
TemperatureC °F DewpointC °F PressurehPa in Calm     Humidity % HourlyPrecipMM in
00:00 -6.0 °F -6.7 °F 1016.8 in South 1.6 mph 6.4 mph 95 % 0.0 in
00:15 -5.8 °F -6.5 °F 1016.8 in Calm     95 % 0.0 in
00:30 -5.7 °F -6.4 °F 1016.8 in South 1.6 mph 6.4 mph 95 % 0.0 in
00:45 -5.4 °F -6.1 °F 1016.8 in SE 1.6 mph 8.0 mph 95 % 0.0 in
01:00 -5.4 °F -6.1 °F 1017.2 in Calm     95 % 0.0 in
01:15 -5.8 °F -6.4 °F 1017.2 in Calm   3.2 mph 95 % 0.0 in
01:30 -5.8 °F -6.4 °F 1017.2 in SE 1.6 mph 6.4 mph 95 % 0.0 in
01:45 -5.7 °F -6.4 °F 1016.8 in Calm     95 % 0.0 in
02:00 -5.9 °F -6.8 °F 1017.2 in Calm   6.4 mph 94 % 0.0 in
02:15 -5.9 °F -6.6 °F 1017.2 in Calm     95 % 0.0 in
02:30 -5.9 °F -6.6 °F 1017.5 in SE 1.6 mph 6.4 mph 95 % 0.0 in
02:45 -5.9 °F -6.8 °F 1017.5 in Calm     94 % 0.0 in
03:00 -6.1 °F -6.9 °F 1017.5 in Calm     94 % 0.0 in
03:15 -6.6 °F -7.6 °F 1017.5 in Calm   3.2 mph 93 % 0.0 in
03:30 -6.7 °F -7.5 °F 1017.8 in Calm     94 % 0.0 in
03:45 -6.2 °F -6.9 °F 1018.2 in Calm   3.2 mph 95 % 0.0 in
04:00 -6.1 °F -6.7 °F 1018.2 in Calm   3.2 mph 95 % 0.0 in
04:15 -5.7 °F -6.3 °F 1017.8 in Calm     95 % 0.0 in
04:30 -5.4 °F -6.1 °F 1017.8 in SSE 1.6 mph 6.4 mph 95 % 0.0 in
04:45 -5.6 °F -6.2 °F 1017.8 in Calm   3.2 mph 95 % 0.0 in
05:00 -5.6 °F -6.3 °F 1017.8 in Calm     95 % 0.0 in
05:15 -5.6 °F -6.2 °F 1017.5 in SSE 1.6 mph 6.4 mph 95 % 0.0 in
05:30 -5.4 °F -6.1 °F 1017.5 in Calm     95 % 0.0 in
05:45 -5.8 °F -6.6 °F 1017.5 in Calm     94 % 0.0 in
06:00 -6.3 °F -7.1 °F 1017.5 in Calm     94 % 0.0 in
06:15 -6.4 °F -7.3 °F 1017.8 in Calm   3.2 mph 94 % 0.0 in
06:30 -6.3 °F -6.9 °F 1017.5 in Calm   3.2 mph 95 % 0.0 in
06:45 -6.2 °F -6.9 °F 1017.5 in Calm     95 % 0.0 in
07:00 -6.4 °F -7.3 °F 1017.2 in Calm     94 % 0.0 in
07:15 -6.5 °F -7.3 °F 1017.2 in Calm     94 % 0.0 in
07:30 -6.7 °F -7.5 °F 1017.5 in Calm     94 % 0.0 in
07:45 -6.4 °F -7.1 °F 1017.5 in Calm   6.4 mph 95 % 0.0 in
08:00 -4.9 °F -5.4 °F 1017.5 in SSW 3.2 mph 8.0 mph 96 % 0.0 in
08:15 -4.3 °F -4.9 °F 1017.5 in SW 3.2 mph 4.8 mph 96 % 0.0 in
08:30 -3.8 °F -4.3 °F 1017.5 in SW 1.6 mph 9.7 mph 96 % 0.0 in
08:45 -3.4 °F -4.0 °F 1017.5 in SSW 3.2 mph 6.4 mph 96 % 0.0 in
09:00 -3.3 °F -3.9 °F 1017.5 in SSW 1.6 mph 4.8 mph 96 % 0.0 in
09:15 -3.2 °F -3.8 °F 1017.5 in SSW 1.6 mph 6.4 mph 96 % 0.0 in
09:30 -3.3 °F -3.8 °F 1017.2 in SW 3.2 mph 8.0 mph 96 % 0.0 in
09:45 -3.1 °F -3.5 °F 1016.8 in SSW 3.2 mph 9.7 mph 97 % 0.0 in
10:00 -2.9 °F -3.5 °F 1016.5 in SSW 3.2 mph 8.0 mph 96 % 0.0 in
10:15 -2.8 °F -3.3 °F 1016.5 in SSW 3.2 mph 11.3 mph 96 % 0.0 in
10:30 -2.6 °F -3.0 °F 1016.1 in SSW 3.2 mph 8.0 mph 97 % 0.0 in
10:45 -2.2 °F -2.6 °F 1015.8 in SSW 4.8 mph 11.3 mph 97 % 0.0 in
11:00 -2.0 °F -2.4 °F 1015.5 in SSW 4.8 mph 11.3 mph 97 % 0.0 in
11:15 -1.8 °F -2.2 °F 1015.5 in SSW 4.8 mph 11.3 mph 97 % 0.0 in
11:30 -1.6 °F -2.0 °F 1015.5 in SSW 3.2 mph 9.7 mph 97 % 0.0 in
11:45 -1.3 °F -1.7 °F 1015.8 in SSW 4.8 mph 11.3 mph 97 % 0.0 in
12:00 -1.0 °F -1.4 °F 1015.5 in SSW 6.4 mph 14.5 mph 97 % 0.0 in
12:15 -0.8 °F -1.2 °F 1015.1 in SSW 6.4 mph 17.7 mph 97 % 0.0 in
12:30 -0.6 °F -1.0 °F 1015.1 in SSW 4.8 mph 14.5 mph 97 % 0.0 in
12:45 -0.4 °F -0.9 °F 1014.8 in SSW 4.8 mph 11.3 mph 97 % 0.0 in
13:00 -0.3 °F -0.8 °F 1014.1 in SSW 3.2 mph 11.3 mph 97 % 0.0 in
13:15 -0.3 °F -0.7 °F 1013.8 in SSW 3.2 mph 11.3 mph 97 % 0.0 in
13:30 -0.2 °F -0.6 °F 1013.4 in SSW 4.8 mph 17.7 mph 97 % 0.0 in
13:45 -0.2 °F -0.6 °F 1013.4 in SSW 4.8 mph 16.1 mph 97 % 0.0 in
14:00 -0.1 °F -0.5 °F 1013.1 in SSW 6.4 mph 17.7 mph 97 % 0.0 in
14:15 0.0 °F -0.4 °F 1013.1 in SSW 6.4 mph 16.1 mph 97 % 0.0 in
14:30 0.0 °F -0.4 °F 1012.8 in SSW 6.4 mph 14.5 mph 97 % 0.0 in
14:45 0.1 °F -0.5 °F 1012.4 in SSW 6.4 mph 14.5 mph 96 % 0.0 in
15:00 0.1 °F -0.5 °F 1012.1 in SSW 9.7 mph 20.9 mph 96 % 0.0 in
15:45 0.1 °F -0.8 °F 1011.1 in SSW 9.7 mph 22.5 mph 94 % 0.0 in
16:45 0.3 °F -0.8 °F 1010.7 in SSW 9.7 mph 20.9 mph 92 % 0.0 in
17:00 0.4 °F -0.7 °F 1010.4 in SSW 8.0 mph 22.5 mph 92 % 0.0 in
17:15 0.7 °F -0.5 °F 1010.4 in SSW 12.9 mph 25.7 mph 92 % 0.0 in
17:30 0.7 °F -0.5 °F 1010.4 in SSW 11.3 mph 30.6 mph 92 % 0.0 in
17:45 0.7 °F -0.4 °F 1010.0 in SSW 12.9 mph 33.8 mph 92 % 0.0 in
18:00 0.7 °F -0.4 °F 1010.0 in SSW 14.5 mph 32.2 mph 92 % 0.0 in
18:15 0.6 °F -0.5 °F 1009.7 in SSW 11.3 mph 24.1 mph 92 % 0.0 in
18:30 0.5 °F -0.6 °F 1009.7 in SSW 11.3 mph 25.7 mph 92 % 0.0 in
18:45 0.5 °F -0.6 °F 1009.7 in SSW 11.3 mph 29.0 mph 92 % 0.0 in
19:00 0.4 °F -0.7 °F 1009.7 in SSW 9.7 mph 22.5 mph 92 % 0.0 in
19:15 0.4 °F -0.7 °F 1010.0 in SSW 11.3 mph 27.4 mph 92 % 0.0 in
19:30 0.5 °F -0.6 °F 1009.7 in SSW 11.3 mph 32.2 mph 92 % 0.0 in
19:45 0.4 °F -0.7 °F 1010.0 in SSW 11.3 mph 29.0 mph 92 % 0.0 in
20:00 0.4 °F -0.8 °F 1009.7 in SSW 9.7 mph 27.4 mph 92 % 0.0 in
20:15 0.2 °F -0.9 °F 1009.7 in SSW 11.3 mph 25.7 mph 92 % 0.0 in
20:30 0.1 °F -1.1 °F 1009.7 in SSW 8.0 mph 16.1 mph 92 % 0.0 in
20:45 -0.2 °F -1.2 °F 1010.0 in SSW 4.8 mph 11.3 mph 93 % 0.0 in
21:00 -0.3 °F -1.3 °F 1010.0 in SSW 6.4 mph 11.3 mph 93 % 0.0 in
21:15 -0.6 °F -1.5 °F 1010.0 in SSW 4.8 mph 8.0 mph 93 % 0.0 in
21:30 -0.7 °F -1.5 °F 1010.0 in SSW 8.0 mph 16.1 mph 94 % 0.0 in
21:45 -0.7 °F -1.6 °F 1010.0 in SSW 4.8 mph 14.5 mph 94 % 0.0 in
22:00 -0.8 °F -1.6 °F 1010.0 in SSW 4.8 mph 12.9 mph 94 % 0.0 in
22:15 -0.7 °F -1.5 °F 1010.0 in SSW 6.4 mph 16.1 mph 94 % 0.0 in
22:30 -0.8 °F -1.6 °F 1010.4 in SW 3.2 mph 12.9 mph 94 % 0.0 in
22:45 -0.8 °F -1.6 °F 1010.0 in SSW 4.8 mph 11.3 mph 94 % 0.0 in
23:00 -0.9 °F -1.7 °F 1010.0 in SSW 6.4 mph 14.5 mph 94 % 0.0 in
23:15 -1.0 °F -1.8 °F 1010.0 in SSW 4.8 mph 11.3 mph 94 % 0.0 in
23:30 -1.1 °F -2.0 °F 1010.0 in SSW 4.8 mph 9.7 mph 94 % 0.0 in
23:45 -1.2 °F -2.0 °F 1010.0 in SSW 6.4 mph 11.3 mph 94 % 0.0 in
Esan sääasema
Terveisin Weather Underground - 2.75 mb

Alkuperäinen skripti  Jim McMurry - jmcmurry@mwt.net Sovitettu myös templatelle  Wim van der Kuil - Leuven-Template.eu

Laitteet joita käytämme:

Sääasema
Davis VP2

Sääasemaohjelma
Cumulus

Sääaseman tietokone
Asus EeePC

Palveluntarjoaja
Suncomet

Davis VP2

Cumulus

Asus EeePC

Suncomet